Aviation Digital Data Service (ADDS)

Output produced by METARs form (2007 UTC 28 May 2015)
found at http://aviationweather.gov/adds/metars/
 
KALB 281955Z 2820/2918 30019G30KT P6SM FEW070 BKN270 
     FM290100 30006KT P6SM SKC 
     FM290800 VRB02KT 3SM BR SCT002 
     FM291400 VRB06KT P6SM SCT035